createdAt,value
2024-03-12T00:00:19.255Z,10.70
2024-03-12T00:02:47.371Z,10.70
2024-03-12T00:05:19.762Z,10.70
2024-03-12T00:07:48.037Z,10.60
2024-03-12T00:10:20.713Z,10.60
2024-03-12T00:12:49.884Z,10.60
2024-03-12T00:15:21.549Z,10.50
2024-03-12T00:17:50.526Z,10.50
2024-03-12T00:20:18.635Z,10.50
2024-03-12T00:22:47.402Z,10.50
2024-03-12T00:25:16.133Z,10.40
2024-03-12T00:27:44.170Z,10.40
2024-03-12T00:30:12.301Z,10.40
2024-03-12T00:32:39.815Z,10.40
2024-03-12T00:35:08.177Z,10.40
2024-03-12T00:37:35.148Z,10.40
2024-03-12T00:40:02.396Z,10.30
2024-03-12T00:42:29.352Z,10.30
2024-03-12T00:44:56.869Z,10.20
2024-03-12T00:47:26.525Z,10.20
2024-03-12T00:49:55.242Z,10.20
2024-03-12T00:52:24.990Z,10.30
2024-03-12T00:54:51.924Z,10.20
2024-03-12T00:57:21.427Z,10.20
2024-03-12T00:59:48.662Z,10.20
2024-03-12T01:02:15.565Z,10.20
2024-03-12T01:04:42.484Z,10.20
2024-03-12T01:07:09.516Z,10.20
2024-03-12T01:09:40.846Z,10.20
2024-03-12T01:12:10.560Z,10.20
2024-03-12T01:14:38.386Z,10.20
2024-03-12T01:17:07.550Z,10.20
2024-03-12T01:19:36.608Z,10.10
2024-03-12T01:22:05.481Z,10.10
2024-03-12T01:24:32.938Z,10.00
2024-03-12T01:26:59.836Z,10.00
2024-03-12T01:29:26.760Z,10.00
2024-03-12T01:31:53.973Z,9.90
2024-03-12T01:34:23.872Z,9.90
2024-03-12T01:36:53.725Z,9.90
2024-03-12T01:39:27.403Z,9.90
2024-03-12T01:41:54.486Z,10.00
2024-03-12T01:44:21.614Z,9.90
2024-03-12T01:46:48.795Z,9.90
2024-03-12T01:49:16.370Z,9.90
2024-03-12T01:51:43.903Z,9.90
2024-03-12T01:54:10.878Z,9.90
2024-03-12T01:56:37.783Z,9.90
2024-03-12T01:59:04.719Z,9.80
2024-03-12T02:01:31.729Z,9.80
2024-03-12T02:03:58.849Z,9.80
2024-03-12T02:06:26.272Z,9.70
2024-03-12T02:08:54.224Z,9.60
2024-03-12T02:11:21.254Z,9.60
2024-03-12T02:13:52.360Z,9.50
2024-03-12T02:16:19.781Z,9.40
2024-03-12T02:18:46.742Z,9.30
2024-03-12T02:21:14.141Z,9.30
2024-03-12T02:23:43.023Z,9.30
2024-03-12T02:26:11.011Z,9.20
2024-03-12T02:28:38.353Z,9.20
2024-03-12T02:31:07.016Z,9.10
2024-03-12T02:33:34.428Z,9.00
2024-03-12T02:36:01.392Z,9.00
2024-03-12T02:38:28.597Z,8.90
2024-03-12T02:40:55.503Z,8.90
2024-03-12T02:43:22.977Z,8.90
2024-03-12T02:45:51.096Z,8.80
2024-03-12T02:48:18.138Z,8.80
2024-03-12T02:50:45.053Z,8.80
2024-03-12T02:53:12.065Z,8.80
2024-03-12T02:55:39.020Z,8.80
2024-03-12T02:58:06.092Z,8.70
2024-03-12T03:00:33.305Z,8.70
2024-03-12T03:03:00.522Z,8.70
2024-03-12T03:05:29.537Z,8.70
2024-03-12T03:07:57.263Z,8.70
2024-03-12T03:10:24.226Z,8.60
2024-03-12T03:12:51.992Z,8.60
2024-03-12T03:15:19.607Z,8.60
2024-03-12T03:17:47.447Z,8.60
2024-03-12T03:20:17.677Z,8.70
2024-03-12T03:22:45.840Z,8.70
2024-03-12T03:25:13.875Z,8.70
2024-03-12T03:27:41.336Z,8.70
2024-03-12T03:30:11.456Z,8.70
2024-03-12T03:32:38.474Z,8.70
2024-03-12T03:35:05.801Z,8.70
2024-03-12T03:37:36.408Z,8.70
2024-03-12T03:40:12.387Z,8.60
2024-03-12T03:42:39.949Z,8.60
2024-03-12T03:45:07.272Z,8.60
2024-03-12T03:47:37.698Z,8.60
2024-03-12T03:50:09.653Z,8.60
2024-03-12T03:52:38.377Z,8.60
2024-03-12T03:55:07.882Z,8.60
2024-03-12T03:57:35.193Z,8.60
2024-03-12T04:00:04.401Z,8.60
2024-03-12T04:02:31.294Z,8.60
2024-03-12T04:04:58.513Z,8.60
2024-03-12T04:07:26.592Z,8.70
2024-03-12T04:09:55.549Z,8.80
2024-03-12T04:12:23.869Z,8.80
2024-03-12T04:14:50.801Z,8.80
2024-03-12T04:17:20.346Z,8.70
2024-03-12T04:19:50.048Z,8.70
2024-03-12T04:22:17.691Z,8.70
2024-03-12T04:24:48.071Z,8.80
2024-03-12T04:27:16.082Z,8.80
2024-03-12T04:29:43.502Z,8.80
2024-03-12T04:32:11.074Z,8.70
2024-03-12T04:34:38.543Z,8.60
2024-03-12T04:37:06.142Z,8.50
2024-03-12T04:39:33.657Z,8.50
2024-03-12T04:42:03.435Z,8.50
2024-03-12T04:44:30.745Z,8.50
2024-03-12T04:46:57.674Z,8.50
2024-03-12T04:49:25.735Z,8.60
2024-03-12T04:51:53.347Z,8.70
2024-03-12T04:54:21.046Z,8.70
2024-03-12T04:56:49.270Z,8.70
2024-03-12T04:59:16.378Z,8.80
2024-03-12T05:01:49.563Z,8.80
2024-03-12T05:04:22.544Z,8.80
2024-03-12T05:06:50.959Z,8.80
2024-03-12T05:09:19.314Z,8.80
2024-03-12T05:11:46.970Z,8.80
2024-03-12T05:14:13.990Z,8.80
2024-03-12T05:16:40.929Z,8.70
2024-03-12T05:19:12.062Z,8.70
2024-03-12T05:21:39.463Z,8.60
2024-03-12T05:24:06.774Z,8.60
2024-03-12T05:26:37.535Z,8.60
2024-03-12T05:29:04.512Z,8.60
2024-03-12T05:31:33.596Z,8.60
2024-03-12T05:34:01.928Z,8.70
2024-03-12T05:36:42.044Z,8.80
2024-03-12T05:39:22.131Z,8.80
2024-03-12T05:42:07.672Z,8.90
2024-03-12T05:44:53.018Z,8.90
2024-03-12T05:47:38.612Z,8.90
2024-03-12T05:50:09.101Z,9.00
2024-03-12T05:52:35.992Z,9.00
2024-03-12T05:55:03.447Z,9.00
2024-03-12T05:57:30.403Z,9.00
2024-03-12T05:59:57.343Z,9.10
2024-03-12T06:02:24.586Z,9.10
2024-03-12T06:04:51.975Z,9.10
2024-03-12T06:07:21.235Z,9.10
2024-03-12T06:09:48.364Z,9.10
2024-03-12T06:12:15.295Z,9.20
2024-03-12T06:14:42.181Z,9.20
2024-03-12T06:17:09.131Z,9.30
2024-03-12T06:19:36.141Z,9.40
2024-03-12T06:22:03.083Z,9.50
2024-03-12T06:24:30.053Z,10.00
2024-03-12T06:26:57.640Z,10.60
2024-03-12T06:29:24.770Z,11.20
2024-03-12T06:31:51.939Z,11.70
2024-03-12T06:34:18.976Z,11.90
2024-03-12T06:36:50.827Z,12.30
2024-03-12T06:39:19.187Z,12.40
2024-03-12T06:41:47.920Z,12.50
2024-03-12T06:44:17.030Z,12.50
2024-03-12T06:46:46.294Z,12.70
2024-03-12T06:49:13.844Z,12.80
2024-03-12T06:51:40.838Z,12.70
2024-03-12T06:54:08.442Z,12.90
2024-03-12T06:56:42.800Z,13.10
2024-03-12T06:59:11.966Z,13.40
2024-03-12T07:01:42.400Z,13.60
2024-03-12T07:04:10.751Z,13.60
2024-03-12T07:06:42.398Z,13.70
2024-03-12T07:09:23.791Z,13.60
2024-03-12T07:11:50.733Z,13.50
2024-03-12T07:14:30.841Z,13.50
2024-03-12T07:16:57.820Z,13.70
2024-03-12T07:19:24.816Z,14.20
2024-03-12T07:21:51.913Z,14.10
2024-03-12T07:24:18.922Z,13.70
2024-03-12T07:26:49.030Z,13.40
2024-03-12T07:29:16.449Z,13.20
2024-03-12T07:31:43.360Z,12.90
2024-03-12T07:34:10.377Z,12.90
2024-03-12T07:36:37.357Z,12.80
2024-03-12T07:39:10.732Z,12.50
2024-03-12T07:41:38.458Z,12.30
2024-03-12T07:44:07.367Z,12.00
2024-03-12T07:46:37.968Z,11.70
2024-03-12T07:49:05.044Z,11.60
2024-03-12T07:51:32.329Z,11.50
2024-03-12T07:54:00.940Z,11.40
2024-03-12T07:56:31.000Z,11.30
2024-03-12T07:58:58.529Z,11.40
2024-03-12T08:01:28.280Z,11.40
2024-03-12T08:03:56.932Z,11.40
2024-03-12T08:06:24.460Z,11.50
2024-03-12T08:08:51.878Z,11.50
2024-03-12T08:11:20.447Z,11.50
2024-03-12T08:13:49.570Z,11.30
2024-03-12T08:16:19.298Z,11.30
2024-03-12T08:18:46.473Z,11.30
2024-03-12T08:21:13.440Z,11.30
2024-03-12T08:23:40.470Z,11.20
2024-03-12T08:26:08.513Z,11.30
2024-03-12T08:28:35.996Z,11.40
2024-03-12T08:31:10.954Z,11.50
2024-03-12T08:33:45.374Z,11.40
2024-03-12T08:36:12.494Z,11.50
2024-03-12T08:38:39.992Z,11.80
2024-03-12T08:41:10.280Z,11.80
2024-03-12T08:43:38.809Z,11.80
2024-03-12T08:46:09.422Z,11.90
2024-03-12T08:48:36.878Z,11.90
2024-03-12T08:51:04.275Z,11.90
2024-03-12T08:53:40.589Z,11.80
2024-03-12T08:56:07.589Z,11.70
2024-03-12T08:58:34.484Z,11.60
2024-03-12T09:01:01.566Z,11.50
2024-03-12T09:03:30.042Z,11.60
2024-03-12T09:05:56.979Z,11.70
2024-03-12T09:08:25.553Z,11.90
2024-03-12T09:10:54.013Z,11.90
2024-03-12T09:13:21.158Z,12.00
2024-03-12T09:15:52.955Z,11.90
2024-03-12T09:18:24.412Z,11.80
2024-03-12T09:20:54.121Z,11.70
2024-03-12T09:23:21.935Z,11.70
2024-03-12T09:25:48.945Z,11.70
2024-03-12T09:28:18.236Z,11.70
2024-03-12T09:30:45.205Z,11.60
2024-03-12T09:33:14.091Z,11.60
2024-03-12T09:35:41.043Z,11.60
2024-03-12T09:38:10.924Z,11.60
2024-03-12T09:40:38.134Z,11.60
2024-03-12T09:43:06.305Z,11.70
2024-03-12T09:45:33.459Z,11.80
2024-03-12T09:48:00.421Z,11.70
2024-03-12T09:50:30.722Z,11.60
2024-03-12T09:52:59.298Z,11.50
2024-03-12T09:55:26.901Z,11.50
2024-03-12T09:57:54.482Z,11.60
2024-03-12T10:00:26.165Z,11.70
2024-03-12T10:02:53.180Z,11.80
2024-03-12T10:05:24.258Z,11.90
2024-03-12T10:08:09.250Z,11.90
2024-03-12T10:10:44.129Z,12.00
2024-03-12T10:13:19.273Z,12.10
2024-03-12T10:15:53.023Z,12.10
2024-03-12T10:18:23.601Z,12.20
2024-03-12T10:20:55.570Z,12.30
2024-03-12T10:23:24.659Z,12.30
2024-03-12T10:25:51.658Z,12.40
2024-03-12T10:28:26.230Z,12.50
2024-03-12T10:30:53.543Z,12.40
2024-03-12T10:33:22.238Z,12.40
2024-03-12T10:35:52.081Z,12.40
2024-03-12T10:38:27.015Z,12.40
2024-03-12T10:40:58.409Z,12.60
2024-03-12T10:43:25.838Z,12.60
2024-03-12T10:45:55.431Z,12.60
2024-03-12T10:48:23.163Z,12.60
2024-03-12T10:50:50.386Z,12.70
2024-03-12T10:53:18.676Z,12.70
2024-03-12T10:55:46.465Z,12.80
2024-03-12T10:58:16.877Z,12.80
2024-03-12T11:00:43.929Z,12.80
2024-03-12T11:03:13.073Z,12.90
2024-03-12T11:05:40.770Z,13.00
2024-03-12T11:08:10.757Z,12.90
2024-03-12T11:10:38.591Z,13.00
2024-03-12T11:13:09.198Z,13.00
2024-03-12T11:15:36.996Z,13.00
2024-03-12T11:18:06.776Z,12.90
2024-03-12T11:20:34.988Z,12.90
2024-03-12T11:23:02.638Z,12.90
2024-03-12T11:25:36.547Z,12.90
2024-03-12T11:28:23.597Z,12.80
2024-03-12T11:30:59.218Z,12.70
2024-03-12T11:33:46.502Z,12.80
2024-03-12T11:36:21.860Z,13.00
2024-03-12T11:38:51.226Z,13.00
2024-03-12T11:41:18.408Z,13.00
2024-03-12T11:43:45.466Z,13.00
2024-03-12T11:46:17.213Z,12.90
2024-03-12T11:48:46.502Z,12.90
2024-03-12T11:51:14.986Z,12.90
2024-03-12T11:53:46.541Z,12.90
2024-03-12T11:56:23.289Z,12.90
2024-03-12T11:58:59.989Z,12.90
2024-03-12T12:01:34.447Z,13.00
2024-03-12T12:04:11.988Z,12.90
2024-03-12T12:06:39.112Z,13.00
2024-03-12T12:09:10.607Z,13.00
2024-03-12T12:11:39.844Z,13.00
2024-03-12T12:14:09.970Z,12.90
2024-03-12T12:16:37.794Z,13.00
2024-03-12T12:19:06.767Z,13.00
2024-03-12T12:21:37.014Z,12.90
2024-03-12T12:24:05.112Z,13.00
2024-03-12T12:26:37.647Z,12.90
2024-03-12T12:29:06.160Z,12.90
2024-03-12T12:31:38.331Z,12.90
2024-03-12T12:34:07.590Z,12.90
2024-03-12T12:36:39.791Z,12.90
2024-03-12T12:39:11.932Z,12.90
2024-03-12T12:41:47.408Z,12.90
2024-03-12T12:44:18.951Z,12.90
2024-03-12T12:46:47.434Z,12.80
2024-03-12T12:49:16.204Z,12.80
2024-03-12T12:51:46.126Z,12.80
2024-03-12T12:54:16.330Z,12.80
2024-03-12T12:56:45.518Z,12.80
2024-03-12T12:59:18.230Z,12.70
2024-03-12T13:01:49.356Z,12.70
2024-03-12T13:04:24.506Z,12.70
2024-03-12T13:06:55.956Z,12.70
2024-03-12T13:09:30.556Z,12.70
2024-03-12T13:11:58.561Z,12.70
2024-03-12T13:14:27.192Z,12.70
2024-03-12T13:16:54.896Z,12.60
2024-03-12T13:19:24.048Z,12.60
2024-03-12T13:21:51.714Z,12.60
2024-03-12T13:24:20.778Z,12.60
2024-03-12T13:26:48.628Z,12.60
2024-03-12T13:29:16.910Z,12.60
2024-03-12T13:31:47.794Z,12.60
2024-03-12T13:34:14.990Z,12.50
2024-03-12T13:36:42.138Z,12.60
2024-03-12T13:39:09.152Z,12.50
2024-03-12T13:41:36.468Z,12.60
2024-03-12T13:44:03.642Z,12.50
2024-03-12T13:46:30.671Z,12.50
2024-03-12T13:49:15.572Z,12.60
2024-03-12T13:51:44.157Z,12.50
2024-03-12T13:54:11.554Z,12.60
2024-03-12T13:56:39.087Z,12.50
2024-03-12T13:59:06.206Z,12.50
2024-03-12T14:01:34.035Z,12.50
2024-03-12T14:04:01.604Z,12.50
2024-03-12T14:06:29.603Z,12.50
2024-03-12T14:08:57.542Z,12.60
2024-03-12T14:11:26.856Z,12.50
2024-03-12T14:13:56.790Z,12.50
2024-03-12T14:16:25.135Z,12.50
2024-03-12T14:18:53.903Z,12.50
2024-03-12T14:21:22.379Z,12.60
2024-03-12T14:23:49.666Z,12.60
2024-03-12T14:26:18.023Z,12.50
2024-03-12T14:28:45.442Z,12.50
2024-03-12T14:31:15.347Z,12.50
2024-03-12T14:33:43.287Z,12.50
2024-03-12T14:36:10.769Z,12.50
2024-03-12T14:38:38.730Z,12.50
2024-03-12T14:41:07.447Z,12.50
2024-03-12T14:43:34.973Z,12.50
2024-03-12T14:46:02.325Z,12.50
2024-03-12T14:48:30.319Z,12.50
2024-03-12T14:50:57.539Z,12.50
2024-03-12T14:53:24.568Z,12.50
2024-03-12T14:55:51.529Z,12.60
2024-03-12T14:58:18.993Z,12.50
2024-03-12T15:00:46.149Z,12.60
2024-03-12T15:03:13.980Z,12.50
2024-03-12T15:05:42.804Z,12.60
2024-03-12T15:08:11.839Z,12.50
2024-03-12T15:10:39.320Z,12.50
2024-03-12T15:13:06.858Z,12.50
2024-03-12T15:15:34.902Z,12.50
2024-03-12T15:18:02.333Z,12.50
2024-03-12T15:20:29.468Z,12.50
2024-03-12T15:22:58.109Z,12.50
2024-03-12T15:25:26.697Z,12.50
2024-03-12T15:27:54.405Z,12.50
2024-03-12T15:30:23.569Z,12.50
2024-03-12T15:32:50.749Z,12.50
2024-03-12T15:35:17.866Z,12.50
2024-03-12T15:37:44.820Z,12.50
2024-03-12T15:40:14.029Z,12.50
2024-03-12T15:42:45.682Z,12.50
2024-03-12T15:45:13.749Z,12.50
2024-03-12T15:47:44.210Z,12.50
2024-03-12T15:50:17.056Z,12.50
2024-03-12T15:52:44.915Z,12.50
2024-03-12T15:55:13.610Z,12.50
2024-03-12T15:57:42.016Z,12.50
2024-03-12T16:00:10.105Z,12.50
2024-03-12T16:02:37.287Z,12.40
2024-03-12T16:05:06.455Z,12.40
2024-03-12T16:07:36.644Z,12.30
2024-03-12T16:10:05.772Z,12.30
2024-03-12T16:12:33.192Z,12.20
2024-03-12T16:15:00.354Z,12.10
2024-03-12T16:17:31.146Z,12.10
2024-03-12T16:19:58.301Z,12.10
2024-03-12T16:22:25.222Z,12.10
2024-03-12T16:24:52.287Z,12.10
2024-03-12T16:27:19.346Z,12.10
2024-03-12T16:29:48.266Z,12.10
2024-03-12T16:32:15.732Z,12.00
2024-03-12T16:34:43.254Z,12.00
2024-03-12T16:37:10.593Z,12.00
2024-03-12T16:39:39.895Z,12.00
2024-03-12T16:42:07.439Z,12.00
2024-03-12T16:44:34.402Z,11.90
2024-03-12T16:47:06.022Z,11.90
2024-03-12T16:49:34.380Z,11.90
2024-03-12T16:52:02.476Z,11.90
2024-03-12T16:54:31.851Z,11.80
2024-03-12T16:57:00.362Z,11.80
2024-03-12T16:59:27.588Z,11.80
2024-03-12T17:01:54.887Z,11.70
2024-03-12T17:04:22.190Z,11.70
2024-03-12T17:06:57.784Z,11.60
2024-03-12T17:09:25.684Z,11.60
2024-03-12T17:11:52.868Z,11.60
2024-03-12T17:14:27.591Z,11.60
2024-03-12T17:17:06.558Z,11.50
2024-03-12T17:19:38.604Z,11.50
2024-03-12T17:22:07.271Z,11.60
2024-03-12T17:24:36.128Z,11.60
2024-03-12T17:27:09.440Z,11.60
2024-03-12T17:29:38.315Z,11.60
2024-03-12T17:32:11.696Z,11.60
2024-03-12T17:34:40.050Z,11.60
2024-03-12T17:37:15.200Z,11.50
2024-03-12T17:39:48.713Z,11.50
2024-03-12T17:42:17.419Z,11.50
2024-03-12T17:44:44.788Z,11.50
2024-03-12T17:47:21.729Z,11.50
2024-03-12T17:49:52.922Z,11.50
2024-03-12T17:52:20.381Z,11.50
2024-03-12T17:54:47.752Z,11.50
2024-03-12T17:57:15.819Z,11.50
2024-03-12T17:59:44.560Z,11.50
2024-03-12T18:02:14.651Z,11.50
2024-03-12T18:04:42.799Z,11.40
2024-03-12T18:07:34.820Z,11.40
2024-03-12T18:10:04.650Z,11.40
2024-03-12T18:12:31.753Z,11.40
2024-03-12T18:14:59.057Z,11.40
2024-03-12T18:17:26.201Z,11.40
2024-03-12T18:19:53.342Z,11.40
2024-03-12T18:22:20.647Z,11.40
2024-03-12T18:24:47.821Z,11.40
2024-03-12T18:27:14.956Z,11.40
2024-03-12T18:29:45.085Z,11.40
2024-03-12T18:32:15.818Z,11.30
2024-03-12T18:34:43.985Z,11.30
2024-03-12T18:37:11.177Z,11.30
2024-03-12T18:39:38.211Z,11.30
2024-03-12T18:42:07.137Z,11.20
2024-03-12T18:44:34.456Z,11.20
2024-03-12T18:47:02.199Z,11.20
2024-03-12T18:49:29.486Z,11.10
2024-03-12T18:51:56.844Z,11.10
2024-03-12T18:54:24.014Z,11.10
2024-03-12T18:56:51.788Z,11.00
2024-03-12T18:59:19.046Z,11.00
2024-03-12T19:01:52.680Z,10.90
2024-03-12T19:04:28.719Z,10.90
2024-03-12T19:06:56.036Z,10.90
2024-03-12T19:09:24.682Z,10.90
2024-03-12T19:11:52.485Z,10.90
2024-03-12T19:14:21.597Z,10.80
2024-03-12T19:16:52.880Z,10.80
2024-03-12T19:19:24.896Z,10.80
2024-03-12T19:21:52.807Z,10.80
2024-03-12T19:24:20.071Z,10.80
2024-03-12T19:26:47.565Z,10.80
2024-03-12T19:29:15.030Z,10.80
2024-03-12T19:31:42.432Z,10.80
2024-03-12T19:34:17.397Z,10.80
2024-03-12T19:36:45.762Z,10.80
2024-03-12T19:39:14.546Z,10.80
2024-03-12T19:41:45.960Z,10.80
2024-03-12T19:44:13.467Z,10.80
2024-03-12T19:46:44.047Z,10.70
2024-03-12T19:49:11.486Z,10.70
2024-03-12T19:51:38.894Z,10.70
2024-03-12T19:54:10.030Z,10.70
2024-03-12T19:56:37.528Z,10.60
2024-03-12T19:59:06.492Z,10.60
2024-03-12T20:01:35.061Z,10.50
2024-03-12T20:04:02.453Z,10.50
2024-03-12T20:06:30.376Z,10.40
2024-03-12T20:08:58.687Z,10.30
2024-03-12T20:11:26.473Z,10.30
2024-03-12T20:13:56.060Z,10.30
2024-03-12T20:16:23.274Z,10.30
2024-03-12T20:18:50.462Z,10.20
2024-03-12T20:21:18.203Z,10.20
2024-03-12T20:23:46.146Z,10.20
2024-03-12T20:26:13.625Z,10.30
2024-03-12T20:28:42.400Z,10.30
2024-03-12T20:31:11.075Z,10.20
2024-03-12T20:33:39.959Z,10.10
2024-03-12T20:38:49.804Z,10.10
2024-03-12T20:41:21.819Z,10.00
2024-03-12T20:43:49.041Z,10.00
2024-03-12T20:46:16.475Z,10.00
2024-03-12T20:48:43.474Z,10.00
2024-03-12T20:51:12.157Z,9.90
2024-03-12T20:53:39.692Z,9.90
2024-03-12T20:56:07.494Z,9.90
2024-03-12T20:58:34.639Z,9.80
2024-03-12T21:01:01.865Z,9.80
2024-03-12T21:03:32.310Z,9.70
2024-03-12T21:05:59.426Z,9.70
2024-03-12T21:08:27.771Z,9.70
2024-03-12T21:10:54.852Z,9.60
2024-03-12T21:13:22.275Z,9.60
2024-03-12T21:15:50.137Z,9.60
2024-03-12T21:18:20.237Z,9.60
2024-03-12T21:20:49.323Z,9.60
2024-03-12T21:23:17.983Z,9.50
2024-03-12T21:25:46.178Z,9.50
2024-03-12T21:28:13.252Z,9.50
2024-03-12T21:30:42.366Z,9.50
2024-03-12T21:33:11.523Z,9.40
2024-03-12T21:35:40.044Z,9.50
2024-03-12T21:38:07.069Z,9.40
2024-03-12T21:40:36.278Z,9.40
2024-03-12T21:43:05.507Z,9.40
2024-03-12T21:45:36.591Z,9.40
2024-03-12T21:48:08.119Z,9.40
2024-03-12T21:50:35.460Z,9.40
2024-03-12T21:53:03.221Z,9.40
2024-03-12T21:55:30.323Z,9.30
2024-03-12T21:57:57.433Z,9.30
2024-03-12T22:00:25.468Z,9.30
2024-03-12T22:02:52.609Z,9.30
2024-03-12T22:05:24.054Z,9.30
2024-03-12T22:07:51.435Z,9.30
2024-03-12T22:10:18.919Z,9.40
2024-03-12T22:12:46.475Z,9.40
2024-03-12T22:15:15.786Z,9.40
2024-03-12T22:17:47.185Z,9.40
2024-03-12T22:20:19.933Z,9.40
2024-03-12T22:22:50.471Z,9.40
2024-03-12T22:25:20.016Z,9.40
2024-03-12T22:27:49.102Z,9.40
2024-03-12T22:30:17.931Z,9.30
2024-03-12T22:32:46.338Z,9.30
2024-03-12T22:35:13.700Z,9.30
2024-03-12T22:37:43.502Z,9.30
2024-03-12T22:40:13.832Z,9.30
2024-03-12T22:42:41.621Z,9.30
2024-03-12T22:45:10.250Z,9.30
2024-03-12T22:47:37.559Z,9.20
2024-03-12T22:50:04.771Z,9.20
2024-03-12T22:52:32.026Z,9.20
2024-03-12T22:54:59.153Z,9.20
2024-03-12T22:57:27.938Z,9.20
2024-03-12T22:59:55.163Z,9.20
2024-03-12T23:02:23.507Z,9.20
2024-03-12T23:04:52.213Z,9.20
2024-03-12T23:07:19.962Z,9.10
2024-03-12T23:09:48.612Z,9.10
2024-03-12T23:12:16.452Z,9.10
2024-03-12T23:14:43.693Z,9.10
2024-03-12T23:17:11.267Z,9.10
2024-03-12T23:19:41.587Z,9.10
2024-03-12T23:22:10.534Z,9.10
2024-03-12T23:24:39.106Z,9.00
2024-03-12T23:27:06.331Z,9.00
2024-03-12T23:29:33.545Z,9.00
2024-03-12T23:32:01.165Z,9.00
2024-03-12T23:34:28.314Z,9.00
2024-03-12T23:36:55.450Z,9.00
2024-03-12T23:39:24.990Z,9.00
2024-03-12T23:41:53.728Z,9.00
2024-03-12T23:44:20.806Z,9.00
2024-03-12T23:46:48.009Z,9.00
2024-03-12T23:49:15.076Z,9.00
2024-03-12T23:51:42.294Z,9.00
2024-03-12T23:54:09.250Z,9.00
2024-03-12T23:56:39.626Z,9.00
2024-03-12T23:59:06.809Z,9.00
